sensor_id;sensor_type;location;lat;lon;timestamp;temperature;humidity
73586;DHT22;61865;50.232;18.614;2023-05-10T00:01:10;5.80;99.90
73586;DHT22;61865;50.232;18.614;2023-05-10T00:03:32;5.80;99.90
73586;DHT22;61865;50.232;18.614;2023-05-10T00:05:54;5.70;99.90
73586;DHT22;61865;50.232;18.614;2023-05-10T00:08:16;5.70;99.90
73586;DHT22;61865;50.232;18.614;2023-05-10T00:10:38;5.60;99.90
73586;DHT22;61865;50.232;18.614;2023-05-10T00:13:01;5.50;99.90
73586;DHT22;61865;50.232;18.614;2023-05-10T00:15:24;5.50;99.90
73586;DHT22;61865;50.232;18.614;2023-05-10T00:17:46;5.40;99.90
73586;DHT22;61865;50.232;18.614;2023-05-10T00:20:09;5.40;99.90
73586;DHT22;61865;50.232;18.614;2023-05-10T00:22:32;5.50;99.90
73586;DHT22;61865;50.232;18.614;2023-05-10T00:24:54;5.50;99.90
73586;DHT22;61865;50.232;18.614;2023-05-10T00:27:16;5.50;99.90
73586;DHT22;61865;50.232;18.614;2023-05-10T00:29:38;5.50;99.90
73586;DHT22;61865;50.232;18.614;2023-05-10T00:32:01;5.50;99.90
73586;DHT22;61865;50.232;18.614;2023-05-10T00:34:23;5.50;99.90
73586;DHT22;61865;50.232;18.614;2023-05-10T00:36:45;5.50;99.90
73586;DHT22;61865;50.232;18.614;2023-05-10T00:39:07;5.60;99.90
73586;DHT22;61865;50.232;18.614;2023-05-10T00:41:29;5.60;99.90
73586;DHT22;61865;50.232;18.614;2023-05-10T00:43:52;5.60;99.90
73586;DHT22;61865;50.232;18.614;2023-05-10T00:46:15;5.60;99.90
73586;DHT22;61865;50.232;18.614;2023-05-10T00:48:39;5.60;99.90
73586;DHT22;61865;50.232;18.614;2023-05-10T00:51:01;5.70;99.90
73586;DHT22;61865;50.232;18.614;2023-05-10T00:53:23;5.60;99.90
73586;DHT22;61865;50.232;18.614;2023-05-10T00:55:46;5.70;99.90
73586;DHT22;61865;50.232;18.614;2023-05-10T00:58:08;5.60;99.90
73586;DHT22;61865;50.232;18.614;2023-05-10T01:00:30;5.60;99.90
73586;DHT22;61865;50.232;18.614;2023-05-10T01:02:53;5.50;99.90
73586;DHT22;61865;50.232;18.614;2023-05-10T01:05:16;5.50;99.90
73586;DHT22;61865;50.232;18.614;2023-05-10T01:07:38;5.50;99.90
73586;DHT22;61865;50.232;18.614;2023-05-10T01:10:01;5.50;99.90
73586;DHT22;61865;50.232;18.614;2023-05-10T01:12:23;5.50;99.90
73586;DHT22;61865;50.232;18.614;2023-05-10T01:14:46;5.50;99.90
73586;DHT22;61865;50.232;18.614;2023-05-10T01:17:08;5.50;99.90
73586;DHT22;61865;50.232;18.614;2023-05-10T01:19:31;5.40;99.90
73586;DHT22;61865;50.232;18.614;2023-05-10T01:22:04;5.40;99.90
73586;DHT22;61865;50.232;18.614;2023-05-10T01:31:02;5.00;99.90
73586;DHT22;61865;50.232;18.614;2023-05-10T01:33:30;4.90;99.90
73586;DHT22;61865;50.232;18.614;2023-05-10T01:35:58;4.70;99.90
73586;DHT22;61865;50.232;18.614;2023-05-10T01:38:29;4.70;99.90
73586;DHT22;61865;50.232;18.614;2023-05-10T01:41:10;4.60;99.90
73586;DHT22;61865;50.232;18.614;2023-05-10T01:43:37;4.60;99.90
73586;DHT22;61865;50.232;18.614;2023-05-10T01:46:03;4.50;99.90
73586;DHT22;61865;50.232;18.614;2023-05-10T01:48:32;4.40;99.90
73586;DHT22;61865;50.232;18.614;2023-05-10T01:50:56;4.40;99.90
73586;DHT22;61865;50.232;18.614;2023-05-10T01:53:19;4.30;99.90
73586;DHT22;61865;50.232;18.614;2023-05-10T01:55:47;4.30;99.90
73586;DHT22;61865;50.232;18.614;2023-05-10T01:58:13;4.30;99.90
73586;DHT22;61865;50.232;18.614;2023-05-10T02:00:36;4.20;99.90
73586;DHT22;61865;50.232;18.614;2023-05-10T02:03:04;4.20;99.90
73586;DHT22;61865;50.232;18.614;2023-05-10T02:05:29;4.10;99.90
73586;DHT22;61865;50.232;18.614;2023-05-10T02:07:52;4.10;99.90
73586;DHT22;61865;50.232;18.614;2023-05-10T02:10:15;4.10;99.90
73586;DHT22;61865;50.232;18.614;2023-05-10T02:12:42;4.00;99.90
73586;DHT22;61865;50.232;18.614;2023-05-10T02:15:06;4.00;99.90
73586;DHT22;61865;50.232;18.614;2023-05-10T02:17:30;4.00;99.90
73586;DHT22;61865;50.232;18.614;2023-05-10T02:19:54;3.90;99.90
73586;DHT22;61865;50.232;18.614;2023-05-10T02:22:19;3.80;99.90
73586;DHT22;61865;50.232;18.614;2023-05-10T02:24:41;3.80;99.90
73586;DHT22;61865;50.232;18.614;2023-05-10T02:27:04;3.70;99.90
73586;DHT22;61865;50.232;18.614;2023-05-10T02:29:28;3.70;99.90
73586;DHT22;61865;50.232;18.614;2023-05-10T02:31:52;3.70;99.90
73586;DHT22;61865;50.232;18.614;2023-05-10T02:34:16;3.70;99.90
73586;DHT22;61865;50.232;18.614;2023-05-10T02:36:38;3.70;99.90
73586;DHT22;61865;50.232;18.614;2023-05-10T02:39:02;3.60;99.90
73586;DHT22;61865;50.232;18.614;2023-05-10T02:41:25;3.60;99.90
73586;DHT22;61865;50.232;18.614;2023-05-10T02:43:49;3.60;99.90
73586;DHT22;61865;50.232;18.614;2023-05-10T02:46:12;3.60;99.90
73586;DHT22;61865;50.232;18.614;2023-05-10T02:48:34;3.60;99.90
73586;DHT22;61865;50.232;18.614;2023-05-10T02:51:04;3.60;99.90
73586;DHT22;61865;50.232;18.614;2023-05-10T02:53:31;3.60;99.90
73586;DHT22;61865;50.232;18.614;2023-05-10T02:55:57;3.70;99.90
73586;DHT22;61865;50.232;18.614;2023-05-10T02:58:20;3.70;99.90
73586;DHT22;61865;50.232;18.614;2023-05-10T03:00:43;3.70;99.90
73586;DHT22;61865;50.232;18.614;2023-05-10T03:03:05;3.80;99.90
73586;DHT22;61865;50.232;18.614;2023-05-10T03:05:28;3.90;99.90
73586;DHT22;61865;50.232;18.614;2023-05-10T03:07:50;3.90;99.90
73586;DHT22;61865;50.232;18.614;2023-05-10T03:10:13;3.90;99.90
73586;DHT22;61865;50.232;18.614;2023-05-10T03:12:47;3.90;99.90
73586;DHT22;61865;50.232;18.614;2023-05-10T03:15:19;3.90;99.90
73586;DHT22;61865;50.232;18.614;2023-05-10T03:17:48;3.90;99.90
73586;DHT22;61865;50.232;18.614;2023-05-10T03:20:21;3.90;99.90
73586;DHT22;61865;50.232;18.614;2023-05-10T03:22:47;3.80;99.90
73586;DHT22;61865;50.232;18.614;2023-05-10T03:25:10;3.60;99.90
73586;DHT22;61865;50.232;18.614;2023-05-10T03:27:34;3.70;99.90
73586;DHT22;61865;50.232;18.614;2023-05-10T03:29:58;3.90;99.90
73586;DHT22;61865;50.232;18.614;2023-05-10T03:32:21;4.10;99.90
73586;DHT22;61865;50.232;18.614;2023-05-10T03:34:43;4.20;99.90
73586;DHT22;61865;50.232;18.614;2023-05-10T03:37:05;4.40;99.90
73586;DHT22;61865;50.232;18.614;2023-05-10T03:39:27;4.50;99.90
73586;DHT22;61865;50.232;18.614;2023-05-10T03:41:49;4.60;99.90
73586;DHT22;61865;50.232;18.614;2023-05-10T03:44:11;4.60;99.90
73586;DHT22;61865;50.232;18.614;2023-05-10T03:46:34;4.90;99.90
73586;DHT22;61865;50.232;18.614;2023-05-10T03:48:56;5.20;99.90
73586;DHT22;61865;50.232;18.614;2023-05-10T03:51:18;5.30;99.90
73586;DHT22;61865;50.232;18.614;2023-05-10T03:53:40;5.50;99.90
73586;DHT22;61865;50.232;18.614;2023-05-10T03:56:03;5.60;99.90
73586;DHT22;61865;50.232;18.614;2023-05-10T03:58:25;5.80;99.90
73586;DHT22;61865;50.232;18.614;2023-05-10T04:00:46;6.00;99.90
73586;DHT22;61865;50.232;18.614;2023-05-10T04:03:10;6.20;99.90
73586;DHT22;61865;50.232;18.614;2023-05-10T04:05:32;6.40;99.90
73586;DHT22;61865;50.232;18.614;2023-05-10T04:07:54;6.60;99.90
73586;DHT22;61865;50.232;18.614;2023-05-10T04:10:16;6.70;99.90
73586;DHT22;61865;50.232;18.614;2023-05-10T04:12:38;7.00;99.90
73586;DHT22;61865;50.232;18.614;2023-05-10T04:15:00;7.20;99.90
73586;DHT22;61865;50.232;18.614;2023-05-10T04:17:22;7.30;99.90
73586;DHT22;61865;50.232;18.614;2023-05-10T04:19:45;7.50;99.90
73586;DHT22;61865;50.232;18.614;2023-05-10T04:22:07;7.70;99.90
73586;DHT22;61865;50.232;18.614;2023-05-10T04:24:29;7.90;99.90
73586;DHT22;61865;50.232;18.614;2023-05-10T04:26:51;8.00;99.90
73586;DHT22;61865;50.232;18.614;2023-05-10T04:29:13;8.20;99.90
73586;DHT22;61865;50.232;18.614;2023-05-10T04:31:35;8.30;99.90
73586;DHT22;61865;50.232;18.614;2023-05-10T04:33:57;8.40;99.90
73586;DHT22;61865;50.232;18.614;2023-05-10T04:36:20;8.60;99.90
73586;DHT22;61865;50.232;18.614;2023-05-10T04:38:42;8.70;99.90
73586;DHT22;61865;50.232;18.614;2023-05-10T04:41:05;8.80;99.90
73586;DHT22;61865;50.232;18.614;2023-05-10T04:43:27;8.90;99.90
73586;DHT22;61865;50.232;18.614;2023-05-10T04:45:49;8.90;99.90
73586;DHT22;61865;50.232;18.614;2023-05-10T04:48:11;9.00;99.90
73586;DHT22;61865;50.232;18.614;2023-05-10T04:50:34;9.20;99.90
73586;DHT22;61865;50.232;18.614;2023-05-10T04:52:57;9.20;99.90
73586;DHT22;61865;50.232;18.614;2023-05-10T04:55:19;9.50;99.90
73586;DHT22;61865;50.232;18.614;2023-05-10T04:57:41;9.70;99.90
73586;DHT22;61865;50.232;18.614;2023-05-10T05:00:04;10.00;99.90
73586;DHT22;61865;50.232;18.614;2023-05-10T05:02:26;10.10;99.90
73586;DHT22;61865;50.232;18.614;2023-05-10T05:04:48;10.30;99.90
73586;DHT22;61865;50.232;18.614;2023-05-10T05:07:10;10.50;99.90
73586;DHT22;61865;50.232;18.614;2023-05-10T05:09:34;10.70;99.90
73586;DHT22;61865;50.232;18.614;2023-05-10T05:11:56;10.90;99.90
73586;DHT22;61865;50.232;18.614;2023-05-10T05:14:17;11.10;99.90
73586;DHT22;61865;50.232;18.614;2023-05-10T05:16:41;11.30;94.10
73586;DHT22;61865;50.232;18.614;2023-05-10T05:19:03;11.40;85.30
73586;DHT22;61865;50.232;18.614;2023-05-10T05:21:25;11.50;80.60
73586;DHT22;61865;50.232;18.614;2023-05-10T05:23:47;11.60;77.40
73586;DHT22;61865;50.232;18.614;2023-05-10T05:26:10;11.70;74.40
73586;DHT22;61865;50.232;18.614;2023-05-10T05:28:32;11.70;72.70
73586;DHT22;61865;50.232;18.614;2023-05-10T05:30:57;11.80;70.80
73586;DHT22;61865;50.232;18.614;2023-05-10T05:33:19;12.00;71.20
73586;DHT22;61865;50.232;18.614;2023-05-10T05:35:41;12.10;70.00
73586;DHT22;61865;50.232;18.614;2023-05-10T05:38:08;12.30;68.60
73586;DHT22;61865;50.232;18.614;2023-05-10T05:40:30;12.40;67.20
73586;DHT22;61865;50.232;18.614;2023-05-10T05:42:53;12.50;66.40
73586;DHT22;61865;50.232;18.614;2023-05-10T05:45:15;12.60;65.70
73586;DHT22;61865;50.232;18.614;2023-05-10T05:47:37;12.80;63.90
73586;DHT22;61865;50.232;18.614;2023-05-10T05:49:59;12.90;61.80
73586;DHT22;61865;50.232;18.614;2023-05-10T05:52:21;13.00;62.20
73586;DHT22;61865;50.232;18.614;2023-05-10T05:54:42;13.20;61.60
73586;DHT22;61865;50.232;18.614;2023-05-10T05:57:04;13.30;60.40
73586;DHT22;61865;50.232;18.614;2023-05-10T05:59:28;13.30;59.90
73586;DHT22;61865;50.232;18.614;2023-05-10T06:01:50;13.40;60.80
73586;DHT22;61865;50.232;18.614;2023-05-10T06:04:12;13.30;60.20
73586;DHT22;61865;50.232;18.614;2023-05-10T06:06:34;13.40;60.50
73586;DHT22;61865;50.232;18.614;2023-05-10T06:08:56;13.40;59.90
73586;DHT22;61865;50.232;18.614;2023-05-10T06:11:18;13.40;60.20
73586;DHT22;61865;50.232;18.614;2023-05-10T06:13:41;13.40;59.40
73586;DHT22;61865;50.232;18.614;2023-05-10T06:16:05;13.50;58.90
73586;DHT22;61865;50.232;18.614;2023-05-10T06:18:27;13.40;59.00
73586;DHT22;61865;50.232;18.614;2023-05-10T06:20:49;13.50;58.80
73586;DHT22;61865;50.232;18.614;2023-05-10T06:23:12;13.60;59.30
73586;DHT22;61865;50.232;18.614;2023-05-10T06:25:34;13.70;56.50
73586;DHT22;61865;50.232;18.614;2023-05-10T06:27:56;13.80;56.80
73586;DHT22;61865;50.232;18.614;2023-05-10T06:30:18;13.90;56.30
73586;DHT22;61865;50.232;18.614;2023-05-10T06:32:44;14.00;55.20
73586;DHT22;61865;50.232;18.614;2023-05-10T06:35:07;14.10;54.30
73586;DHT22;61865;50.232;18.614;2023-05-10T06:37:29;14.20;54.20
73586;DHT22;61865;50.232;18.614;2023-05-10T06:39:51;14.30;54.90
73586;DHT22;61865;50.232;18.614;2023-05-10T06:42:13;14.40;54.50
73586;DHT22;61865;50.232;18.614;2023-05-10T06:44:35;14.60;53.30
73586;DHT22;61865;50.232;18.614;2023-05-10T06:46:57;14.60;52.40
73586;DHT22;61865;50.232;18.614;2023-05-10T06:49:20;14.50;53.60
73586;DHT22;61865;50.232;18.614;2023-05-10T06:51:42;14.70;52.50
73586;DHT22;61865;50.232;18.614;2023-05-10T06:54:04;14.80;51.30
73586;DHT22;61865;50.232;18.614;2023-05-10T06:56:26;15.00;51.60
73586;DHT22;61865;50.232;18.614;2023-05-10T06:58:48;14.90;51.90
73586;DHT22;61865;50.232;18.614;2023-05-10T07:01:10;15.10;51.40
73586;DHT22;61865;50.232;18.614;2023-05-10T07:03:32;15.00;50.50
73586;DHT22;61865;50.232;18.614;2023-05-10T07:06:00;15.00;51.20
73586;DHT22;61865;50.232;18.614;2023-05-10T07:08:23;15.10;51.50
73586;DHT22;61865;50.232;18.614;2023-05-10T07:10:45;15.10;51.20
73586;DHT22;61865;50.232;18.614;2023-05-10T07:13:07;15.10;52.20
73586;DHT22;61865;50.232;18.614;2023-05-10T07:15:30;15.20;51.40
73586;DHT22;61865;50.232;18.614;2023-05-10T07:17:52;15.30;51.40
73586;DHT22;61865;50.232;18.614;2023-05-10T07:20:14;15.40;49.90
73586;DHT22;61865;50.232;18.614;2023-05-10T07:22:37;15.50;49.80
73586;DHT22;61865;50.232;18.614;2023-05-10T07:24:59;15.50;49.50
73586;DHT22;61865;50.232;18.614;2023-05-10T07:27:21;15.60;49.70
73586;DHT22;61865;50.232;18.614;2023-05-10T07:29:43;15.70;49.30
73586;DHT22;61865;50.232;18.614;2023-05-10T07:32:05;15.80;48.40
73586;DHT22;61865;50.232;18.614;2023-05-10T07:34:27;15.80;48.10
73586;DHT22;61865;50.232;18.614;2023-05-10T07:36:50;15.80;48.30
73586;DHT22;61865;50.232;18.614;2023-05-10T07:39:14;15.90;48.70
73586;DHT22;61865;50.232;18.614;2023-05-10T07:41:36;16.00;49.60
73586;DHT22;61865;50.232;18.614;2023-05-10T07:43:59;16.00;49.20
73586;DHT22;61865;50.232;18.614;2023-05-10T07:46:21;15.90;48.10
73586;DHT22;61865;50.232;18.614;2023-05-10T07:48:42;15.90;48.90
73586;DHT22;61865;50.232;18.614;2023-05-10T07:51:04;16.00;49.20
73586;DHT22;61865;50.232;18.614;2023-05-10T07:53:29;16.00;49.30
73586;DHT22;61865;50.232;18.614;2023-05-10T07:55:54;16.10;49.50
73586;DHT22;61865;50.232;18.614;2023-05-10T07:58:18;16.10;48.30
73586;DHT22;61865;50.232;18.614;2023-05-10T08:00:40;16.10;48.30
73586;DHT22;61865;50.232;18.614;2023-05-10T08:03:02;16.30;47.70
73586;DHT22;61865;50.232;18.614;2023-05-10T08:05:25;16.30;49.00
73586;DHT22;61865;50.232;18.614;2023-05-10T08:07:46;16.30;48.40
73586;DHT22;61865;50.232;18.614;2023-05-10T08:10:09;16.50;47.80
73586;DHT22;61865;50.232;18.614;2023-05-10T08:12:33;16.60;46.70
73586;DHT22;61865;50.232;18.614;2023-05-10T08:14:55;16.70;46.80
73586;DHT22;61865;50.232;18.614;2023-05-10T08:17:18;16.70;46.90
73586;DHT22;61865;50.232;18.614;2023-05-10T08:19:40;16.80;47.00
73586;DHT22;61865;50.232;18.614;2023-05-10T08:22:01;16.80;47.90
73586;DHT22;61865;50.232;18.614;2023-05-10T08:24:23;16.80;46.70
73586;DHT22;61865;50.232;18.614;2023-05-10T08:26:45;16.90;45.60
73586;DHT22;61865;50.232;18.614;2023-05-10T08:29:09;16.90;46.60
73586;DHT22;61865;50.232;18.614;2023-05-10T08:31:31;17.00;46.60
73586;DHT22;61865;50.232;18.614;2023-05-10T08:33:53;17.10;45.50
73586;DHT22;61865;50.232;18.614;2023-05-10T08:36:15;17.20;45.90
73586;DHT22;61865;50.232;18.614;2023-05-10T08:38:41;17.20;46.10
73586;DHT22;61865;50.232;18.614;2023-05-10T08:41:04;17.00;45.40
73586;DHT22;61865;50.232;18.614;2023-05-10T08:43:28;17.00;46.30
73586;DHT22;61865;50.232;18.614;2023-05-10T08:45:53;16.90;45.40
73586;DHT22;61865;50.232;18.614;2023-05-10T08:48:16;17.00;45.30
73586;DHT22;61865;50.232;18.614;2023-05-10T08:50:40;17.10;46.20
73586;DHT22;61865;50.232;18.614;2023-05-10T08:53:05;17.30;46.00
73586;DHT22;61865;50.232;18.614;2023-05-10T08:55:27;17.50;45.50
73586;DHT22;61865;50.232;18.614;2023-05-10T08:57:49;17.60;44.20
73586;DHT22;61865;50.232;18.614;2023-05-10T09:00:12;17.70;44.90
73586;DHT22;61865;50.232;18.614;2023-05-10T09:02:37;17.80;44.60
73586;DHT22;61865;50.232;18.614;2023-05-10T09:04:59;18.00;43.00
73586;DHT22;61865;50.232;18.614;2023-05-10T09:07:21;18.00;42.70
73586;DHT22;61865;50.232;18.614;2023-05-10T09:09:44;18.20;43.50
73586;DHT22;61865;50.232;18.614;2023-05-10T09:12:09;18.20;42.60
73586;DHT22;61865;50.232;18.614;2023-05-10T09:14:34;18.30;42.90
73586;DHT22;61865;50.232;18.614;2023-05-10T09:16:56;18.50;42.80
73586;DHT22;61865;50.232;18.614;2023-05-10T09:19:20;18.70;41.20
73586;DHT22;61865;50.232;18.614;2023-05-10T09:21:42;18.90;40.50
73586;DHT22;61865;50.232;18.614;2023-05-10T09:24:04;19.00;41.00
73586;DHT22;61865;50.232;18.614;2023-05-10T09:26:26;19.10;40.80
73586;DHT22;61865;50.232;18.614;2023-05-10T09:28:52;19.10;40.40
73586;DHT22;61865;50.232;18.614;2023-05-10T09:31:14;19.30;40.70
73586;DHT22;61865;50.232;18.614;2023-05-10T09:33:44;19.30;39.20
73586;DHT22;61865;50.232;18.614;2023-05-10T09:36:08;19.30;39.90
73586;DHT22;61865;50.232;18.614;2023-05-10T09:38:45;19.40;41.10
73586;DHT22;61865;50.232;18.614;2023-05-10T09:41:15;19.50;39.90
73586;DHT22;61865;50.232;18.614;2023-05-10T09:43:38;19.50;38.30
73586;DHT22;61865;50.232;18.614;2023-05-10T09:46:08;19.30;40.10
73586;DHT22;61865;50.232;18.614;2023-05-10T09:48:31;19.60;41.00
73586;DHT22;61865;50.232;18.614;2023-05-10T09:50:56;19.90;38.70
73586;DHT22;61865;50.232;18.614;2023-05-10T09:53:20;20.00;38.30
73586;DHT22;61865;50.232;18.614;2023-05-10T09:55:43;20.10;37.70
73586;DHT22;61865;50.232;18.614;2023-05-10T09:58:06;20.00;38.00
73586;DHT22;61865;50.232;18.614;2023-05-10T10:00:35;20.00;37.90
73586;DHT22;61865;50.232;18.614;2023-05-10T10:02:58;20.00;38.90
73586;DHT22;61865;50.232;18.614;2023-05-10T10:05:20;19.90;37.50
73586;DHT22;61865;50.232;18.614;2023-05-10T10:07:43;20.00;37.50
73586;DHT22;61865;50.232;18.614;2023-05-10T10:10:07;20.00;37.60
73586;DHT22;61865;50.232;18.614;2023-05-10T10:12:32;19.80;37.50
73586;DHT22;61865;50.232;18.614;2023-05-10T10:14:55;19.70;37.40
73586;DHT22;61865;50.232;18.614;2023-05-10T10:17:18;19.60;37.90
73586;DHT22;61865;50.232;18.614;2023-05-10T10:19:41;19.60;37.70
73586;DHT22;61865;50.232;18.614;2023-05-10T10:22:04;19.80;38.00
73586;DHT22;61865;50.232;18.614;2023-05-10T10:24:26;20.10;38.50
73586;DHT22;61865;50.232;18.614;2023-05-10T10:26:52;20.40;37.80
73586;DHT22;61865;50.232;18.614;2023-05-10T10:29:23;20.50;36.20
73586;DHT22;61865;50.232;18.614;2023-05-10T10:31:47;20.50;36.90
73586;DHT22;61865;50.232;18.614;2023-05-10T10:34:25;20.40;36.20
73586;DHT22;61865;50.232;18.614;2023-05-10T10:36:49;20.20;36.20
73586;DHT22;61865;50.232;18.614;2023-05-10T10:39:11;20.20;37.70
73586;DHT22;61865;50.232;18.614;2023-05-10T10:41:34;20.50;36.20
73586;DHT22;61865;50.232;18.614;2023-05-10T10:44:33;20.60;35.80
73586;DHT22;61865;50.232;18.614;2023-05-10T10:47:21;20.50;35.50
73586;DHT22;61865;50.232;18.614;2023-05-10T10:49:51;20.20;36.10
73586;DHT22;61865;50.232;18.614;2023-05-10T10:52:23;20.30;37.80
73586;DHT22;61865;50.232;18.614;2023-05-10T10:54:52;20.30;36.00
73586;DHT22;61865;50.232;18.614;2023-05-10T10:57:18;20.30;34.80
73586;DHT22;61865;50.232;18.614;2023-05-10T10:59:43;20.40;37.50
73586;DHT22;61865;50.232;18.614;2023-05-10T11:02:06;20.80;35.00
73586;DHT22;61865;50.232;18.614;2023-05-10T11:04:28;20.80;35.30
73586;DHT22;61865;50.232;18.614;2023-05-10T11:07:16;20.70;35.70
73586;DHT22;61865;50.232;18.614;2023-05-10T11:09:39;20.60;34.60
73586;DHT22;61865;50.232;18.614;2023-05-10T11:12:08;20.50;35.00
73586;DHT22;61865;50.232;18.614;2023-05-10T11:14:31;20.40;34.70
73586;DHT22;61865;50.232;18.614;2023-05-10T11:16:55;20.40;35.50
73586;DHT22;61865;50.232;18.614;2023-05-10T11:19:18;20.30;35.40
73586;DHT22;61865;50.232;18.614;2023-05-10T11:21:45;20.20;36.00
73586;DHT22;61865;50.232;18.614;2023-05-10T11:24:14;20.10;35.80
73586;DHT22;61865;50.232;18.614;2023-05-10T11:26:36;20.00;35.10
73586;DHT22;61865;50.232;18.614;2023-05-10T11:28:58;20.10;35.50
73586;DHT22;61865;50.232;18.614;2023-05-10T11:31:21;20.20;36.20
73586;DHT22;61865;50.232;18.614;2023-05-10T11:33:45;20.20;35.00
73586;DHT22;61865;50.232;18.614;2023-05-10T11:36:11;20.20;34.90
73586;DHT22;61865;50.232;18.614;2023-05-10T11:38:33;20.20;34.30
73586;DHT22;61865;50.232;18.614;2023-05-10T11:40:55;20.50;35.40
73586;DHT22;61865;50.232;18.614;2023-05-10T11:43:17;20.70;35.90
73586;DHT22;61865;50.232;18.614;2023-05-10T11:45:40;21.10;35.40
73586;DHT22;61865;50.232;18.614;2023-05-10T11:48:03;21.30;34.90
73586;DHT22;61865;50.232;18.614;2023-05-10T11:50:27;21.60;33.90
73586;DHT22;61865;50.232;18.614;2023-05-10T11:52:51;21.80;33.70
73586;DHT22;61865;50.232;18.614;2023-05-10T11:55:13;21.80;33.50
73586;DHT22;61865;50.232;18.614;2023-05-10T11:57:35;21.80;33.40
73586;DHT22;61865;50.232;18.614;2023-05-10T11:59:59;22.00;33.90
73586;DHT22;61865;50.232;18.614;2023-05-10T12:02:21;22.40;32.90
73586;DHT22;61865;50.232;18.614;2023-05-10T12:04:43;22.70;32.60
73586;DHT22;61865;50.232;18.614;2023-05-10T12:07:06;22.80;32.60
73586;DHT22;61865;50.232;18.614;2023-05-10T12:09:28;22.70;32.90
73586;DHT22;61865;50.232;18.614;2023-05-10T12:11:55;22.50;31.60
73586;DHT22;61865;50.232;18.614;2023-05-10T12:14:18;22.50;31.40
73586;DHT22;61865;50.232;18.614;2023-05-10T12:16:43;22.50;31.90
73586;DHT22;61865;50.232;18.614;2023-05-10T12:19:05;22.60;32.10
73586;DHT22;61865;50.232;18.614;2023-05-10T12:21:28;22.80;32.00
73586;DHT22;61865;50.232;18.614;2023-05-10T12:23:53;23.00;31.90
73586;DHT22;61865;50.232;18.614;2023-05-10T12:26:15;23.10;30.90
73586;DHT22;61865;50.232;18.614;2023-05-10T12:28:38;23.40;31.10
73586;DHT22;61865;50.232;18.614;2023-05-10T12:31:01;23.50;31.30
73586;DHT22;61865;50.232;18.614;2023-05-10T12:33:23;23.30;30.50
73586;DHT22;61865;50.232;18.614;2023-05-10T12:35:46;23.10;30.40
73586;DHT22;61865;50.232;18.614;2023-05-10T12:38:25;22.80;30.40
73586;DHT22;61865;50.232;18.614;2023-05-10T12:40:48;22.50;30.30
73586;DHT22;61865;50.232;18.614;2023-05-10T12:43:10;22.60;31.80
73586;DHT22;61865;50.232;18.614;2023-05-10T12:45:32;22.90;31.10
73586;DHT22;61865;50.232;18.614;2023-05-10T12:47:54;23.00;30.60
73586;DHT22;61865;50.232;18.614;2023-05-10T12:50:16;22.90;30.60
73586;DHT22;61865;50.232;18.614;2023-05-10T12:52:38;22.80;30.10
73586;DHT22;61865;50.232;18.614;2023-05-10T12:55:00;22.70;30.40
73586;DHT22;61865;50.232;18.614;2023-05-10T12:57:25;22.70;30.40
73586;DHT22;61865;50.232;18.614;2023-05-10T12:59:47;22.70;30.30
73586;DHT22;61865;50.232;18.614;2023-05-10T13:02:09;23.20;30.40
73586;DHT22;61865;50.232;18.614;2023-05-10T13:04:31;23.60;29.80
73586;DHT22;61865;50.232;18.614;2023-05-10T13:06:53;24.00;29.50
73586;DHT22;61865;50.232;18.614;2023-05-10T13:09:16;24.20;29.10
73586;DHT22;61865;50.232;18.614;2023-05-10T13:11:39;24.20;29.30
73586;DHT22;61865;50.232;18.614;2023-05-10T13:14:02;24.30;29.60
73586;DHT22;61865;50.232;18.614;2023-05-10T13:16:24;24.50;28.60
73586;DHT22;61865;50.232;18.614;2023-05-10T13:18:46;24.60;28.60
73586;DHT22;61865;50.232;18.614;2023-05-10T13:21:08;24.80;28.40
73586;DHT22;61865;50.232;18.614;2023-05-10T13:23:30;24.90;28.50
73586;DHT22;61865;50.232;18.614;2023-05-10T13:25:52;24.70;28.10
73586;DHT22;61865;50.232;18.614;2023-05-10T13:28:14;23.90;29.30
73586;DHT22;61865;50.232;18.614;2023-05-10T13:30:37;23.50;28.60
73586;DHT22;61865;50.232;18.614;2023-05-10T13:32:59;23.30;29.10
73586;DHT22;61865;50.232;18.614;2023-05-10T13:35:21;23.10;29.70
73586;DHT22;61865;50.232;18.614;2023-05-10T13:37:43;22.70;29.40
73586;DHT22;61865;50.232;18.614;2023-05-10T13:40:06;22.80;30.00
73586;DHT22;61865;50.232;18.614;2023-05-10T13:42:28;22.60;29.20
73586;DHT22;61865;50.232;18.614;2023-05-10T13:44:52;22.60;29.50
73586;DHT22;61865;50.232;18.614;2023-05-10T13:47:15;22.50;29.20
73586;DHT22;61865;50.232;18.614;2023-05-10T13:49:37;22.20;30.00
73586;DHT22;61865;50.232;18.614;2023-05-10T13:51:59;22.10;30.70
73586;DHT22;61865;50.232;18.614;2023-05-10T13:54:26;22.20;30.60
73586;DHT22;61865;50.232;18.614;2023-05-10T13:56:50;22.10;30.00
73586;DHT22;61865;50.232;18.614;2023-05-10T13:59:11;22.00;30.50
73586;DHT22;61865;50.232;18.614;2023-05-10T14:01:34;22.00;30.00
73586;DHT22;61865;50.232;18.614;2023-05-10T14:03:58;22.10;30.10
73586;DHT22;61865;50.232;18.614;2023-05-10T14:06:20;21.90;29.60
73586;DHT22;61865;50.232;18.614;2023-05-10T14:08:42;21.80;29.70
73586;DHT22;61865;50.232;18.614;2023-05-10T14:11:04;21.70;30.90
73586;DHT22;61865;50.232;18.614;2023-05-10T14:13:26;21.90;31.60
73586;DHT22;61865;50.232;18.614;2023-05-10T14:15:48;21.90;30.50
73586;DHT22;61865;50.232;18.614;2023-05-10T14:18:09;21.80;30.10
73586;DHT22;61865;50.232;18.614;2023-05-10T14:20:33;21.90;30.00
73586;DHT22;61865;50.232;18.614;2023-05-10T14:22:55;22.00;30.00
73586;DHT22;61865;50.232;18.614;2023-05-10T14:25:17;22.10;30.60
73586;DHT22;61865;50.232;18.614;2023-05-10T14:27:39;22.30;30.20
73586;DHT22;61865;50.232;18.614;2023-05-10T14:30:01;22.20;29.90
73586;DHT22;61865;50.232;18.614;2023-05-10T14:32:23;22.10;29.60
73586;DHT22;61865;50.232;18.614;2023-05-10T14:34:47;21.90;29.80
73586;DHT22;61865;50.232;18.614;2023-05-10T14:37:13;21.80;30.10
73586;DHT22;61865;50.232;18.614;2023-05-10T14:39:35;21.60;30.90
73586;DHT22;61865;50.232;18.614;2023-05-10T14:41:57;21.60;30.20
73586;DHT22;61865;50.232;18.614;2023-05-10T14:44:19;21.60;30.40
73586;DHT22;61865;50.232;18.614;2023-05-10T14:46:41;21.50;29.90
73586;DHT22;61865;50.232;18.614;2023-05-10T14:49:03;21.50;30.10
73586;DHT22;61865;50.232;18.614;2023-05-10T14:51:25;21.40;31.60
73586;DHT22;61865;50.232;18.614;2023-05-10T14:53:48;21.30;31.90
73586;DHT22;61865;50.232;18.614;2023-05-10T14:56:10;21.40;31.60
73586;DHT22;61865;50.232;18.614;2023-05-10T14:58:32;21.30;30.80
73586;DHT22;61865;50.232;18.614;2023-05-10T15:00:54;21.20;31.10
73586;DHT22;61865;50.232;18.614;2023-05-10T15:03:17;21.10;31.30